sensor_id;sensor_type;location;lat;lon;timestamp;P1;durP1;ratioP1;P2;durP2;ratioP2
67049;SDS011;53955;52.442;13.284;2023-03-14T00:00:57;2.40;;;1.00;;
67049;SDS011;53955;52.442;13.284;2023-03-14T00:03:24;1.43;;;0.90;;
67049;SDS011;53955;52.442;13.284;2023-03-14T00:05:51;1.65;;;1.00;;
67049;SDS011;53955;52.442;13.284;2023-03-14T00:08:17;2.43;;;1.20;;
67049;SDS011;53955;52.442;13.284;2023-03-14T00:10:46;2.27;;;1.10;;
67049;SDS011;53955;52.442;13.284;2023-03-14T00:13:14;2.83;;;1.13;;
67049;SDS011;53955;52.442;13.284;2023-03-14T00:15:40;1.30;;;0.85;;
67049;SDS011;53955;52.442;13.284;2023-03-14T00:18:07;4.47;;;1.17;;
67049;SDS011;53955;52.442;13.284;2023-03-14T00:20:33;1.93;;;1.10;;
67049;SDS011;53955;52.442;13.284;2023-03-14T00:23:00;1.48;;;1.10;;
67049;SDS011;53955;52.442;13.284;2023-03-14T00:25:27;2.63;;;1.23;;
67049;SDS011;53955;52.442;13.284;2023-03-14T00:27:54;2.37;;;1.00;;
67049;SDS011;53955;52.442;13.284;2023-03-14T00:30:21;2.23;;;1.00;;
67049;SDS011;53955;52.442;13.284;2023-03-14T00:32:48;3.00;;;1.20;;
67049;SDS011;53955;52.442;13.284;2023-03-14T00:35:15;1.50;;;1.00;;
67049;SDS011;53955;52.442;13.284;2023-03-14T00:37:42;2.43;;;1.00;;
67049;SDS011;53955;52.442;13.284;2023-03-14T00:40:09;1.83;;;1.13;;
67049;SDS011;53955;52.442;13.284;2023-03-14T00:42:36;1.47;;;0.97;;
67049;SDS011;53955;52.442;13.284;2023-03-14T00:45:03;1.50;;;1.20;;
67049;SDS011;53955;52.442;13.284;2023-03-14T00:47:31;2.87;;;1.57;;
67049;SDS011;53955;52.442;13.284;2023-03-14T00:49:57;1.77;;;1.30;;
67049;SDS011;53955;52.442;13.284;2023-03-14T00:52:24;3.90;;;1.60;;
67049;SDS011;53955;52.442;13.284;2023-03-14T00:54:51;2.20;;;1.00;;
67049;SDS011;53955;52.442;13.284;2023-03-14T00:57:17;2.27;;;1.20;;
67049;SDS011;53955;52.442;13.284;2023-03-14T00:59:44;4.87;;;1.17;;
67049;SDS011;53955;52.442;13.284;2023-03-14T01:02:10;1.83;;;1.20;;
67049;SDS011;53955;52.442;13.284;2023-03-14T01:04:38;3.30;;;1.30;;
67049;SDS011;53955;52.442;13.284;2023-03-14T01:07:08;1.63;;;1.00;;
67049;SDS011;53955;52.442;13.284;2023-03-14T01:09:34;2.07;;;1.30;;
67049;SDS011;53955;52.442;13.284;2023-03-14T01:12:01;1.70;;;1.10;;
67049;SDS011;53955;52.442;13.284;2023-03-14T01:14:27;1.03;;;0.90;;
67049;SDS011;53955;52.442;13.284;2023-03-14T01:16:54;1.80;;;1.20;;
67049;SDS011;53955;52.442;13.284;2023-03-14T01:19:25;2.10;;;1.10;;
67049;SDS011;53955;52.442;13.284;2023-03-14T01:21:54;1.13;;;1.00;;
67049;SDS011;53955;52.442;13.284;2023-03-14T01:24:20;1.90;;;0.90;;
67049;SDS011;53955;52.442;13.284;2023-03-14T01:26:47;1.23;;;0.93;;
67049;SDS011;53955;52.442;13.284;2023-03-14T01:29:13;2.23;;;1.10;;
67049;SDS011;53955;52.442;13.284;2023-03-14T01:31:40;2.00;;;1.30;;
67049;SDS011;53955;52.442;13.284;2023-03-14T01:34:06;3.20;;;1.10;;
67049;SDS011;53955;52.442;13.284;2023-03-14T01:36:33;2.60;;;1.13;;
67049;SDS011;53955;52.442;13.284;2023-03-14T01:39:01;2.90;;;0.90;;
67049;SDS011;53955;52.442;13.284;2023-03-14T01:41:28;2.83;;;1.27;;
67049;SDS011;53955;52.442;13.284;2023-03-14T01:43:55;1.50;;;1.00;;
67049;SDS011;53955;52.442;13.284;2023-03-14T01:46:23;2.23;;;1.20;;
67049;SDS011;53955;52.442;13.284;2023-03-14T01:48:57;2.67;;;1.43;;
67049;SDS011;53955;52.442;13.284;2023-03-14T01:51:30;2.63;;;1.30;;
67049;SDS011;53955;52.442;13.284;2023-03-14T01:54:05;1.60;;;1.10;;
67049;SDS011;53955;52.442;13.284;2023-03-14T01:56:35;2.97;;;1.20;;
67049;SDS011;53955;52.442;13.284;2023-03-14T01:59:05;2.77;;;1.30;;
67049;SDS011;53955;52.442;13.284;2023-03-14T02:01:33;3.40;;;1.20;;
67049;SDS011;53955;52.442;13.284;2023-03-14T02:04:02;3.47;;;1.40;;
67049;SDS011;53955;52.442;13.284;2023-03-14T02:06:32;2.43;;;1.37;;
67049;SDS011;53955;52.442;13.284;2023-03-14T02:09:05;2.53;;;1.10;;
67049;SDS011;53955;52.442;13.284;2023-03-14T02:11:31;3.93;;;1.03;;
67049;SDS011;53955;52.442;13.284;2023-03-14T02:13:59;5.07;;;1.30;;
67049;SDS011;53955;52.442;13.284;2023-03-14T02:16:27;3.43;;;1.10;;
67049;SDS011;53955;52.442;13.284;2023-03-14T02:18:53;2.27;;;1.00;;
67049;SDS011;53955;52.442;13.284;2023-03-14T02:21:22;2.03;;;1.20;;
67049;SDS011;53955;52.442;13.284;2023-03-14T02:23:53;2.43;;;1.30;;
67049;SDS011;53955;52.442;13.284;2023-03-14T02:26:34;2.50;;;1.43;;
67049;SDS011;53955;52.442;13.284;2023-03-14T02:29:05;2.97;;;1.40;;
67049;SDS011;53955;52.442;13.284;2023-03-14T02:31:32;2.53;;;1.33;;
67049;SDS011;53955;52.442;13.284;2023-03-14T02:33:59;1.13;;;1.00;;
67049;SDS011;53955;52.442;13.284;2023-03-14T02:36:26;1.80;;;0.93;;
67049;SDS011;53955;52.442;13.284;2023-03-14T02:38:55;1.80;;;1.20;;
67049;SDS011;53955;52.442;13.284;2023-03-14T02:41:29;1.87;;;1.10;;
67049;SDS011;53955;52.442;13.284;2023-03-14T02:43:56;3.00;;;1.10;;
67049;SDS011;53955;52.442;13.284;2023-03-14T02:46:24;2.40;;;1.20;;
67049;SDS011;53955;52.442;13.284;2023-03-14T02:48:51;1.73;;;1.10;;
67049;SDS011;53955;52.442;13.284;2023-03-14T02:51:22;1.37;;;0.90;;
67049;SDS011;53955;52.442;13.284;2023-03-14T02:53:51;1.33;;;0.97;;
67049;SDS011;53955;52.442;13.284;2023-03-14T02:56:17;1.87;;;1.07;;
67049;SDS011;53955;52.442;13.284;2023-03-14T02:58:44;1.00;;;0.80;;
67049;SDS011;53955;52.442;13.284;2023-03-14T03:01:10;3.73;;;1.17;;
67049;SDS011;53955;52.442;13.284;2023-03-14T03:03:38;1.37;;;0.97;;
67049;SDS011;53955;52.442;13.284;2023-03-14T03:06:05;3.20;;;1.00;;
67049;SDS011;53955;52.442;13.284;2023-03-14T03:08:32;1.93;;;1.03;;
67049;SDS011;53955;52.442;13.284;2023-03-14T03:10:59;2.37;;;1.03;;
67049;SDS011;53955;52.442;13.284;2023-03-14T03:13:26;2.23;;;1.10;;
67049;SDS011;53955;52.442;13.284;2023-03-14T03:15:52;3.77;;;1.00;;
67049;SDS011;53955;52.442;13.284;2023-03-14T03:18:19;2.87;;;1.00;;
67049;SDS011;53955;52.442;13.284;2023-03-14T03:20:47;1.40;;;0.93;;
67049;SDS011;53955;52.442;13.284;2023-03-14T03:23:14;2.13;;;1.07;;
67049;SDS011;53955;52.442;13.284;2023-03-14T03:25:41;3.80;;;1.20;;
67049;SDS011;53955;52.442;13.284;2023-03-14T03:28:07;1.70;;;1.10;;
67049;SDS011;53955;52.442;13.284;2023-03-14T03:30:37;1.37;;;1.10;;
67049;SDS011;53955;52.442;13.284;2023-03-14T03:33:04;4.30;;;1.30;;
67049;SDS011;53955;52.442;13.284;2023-03-14T03:35:30;2.57;;;1.20;;
67049;SDS011;53955;52.442;13.284;2023-03-14T03:37:58;1.10;;;0.90;;
67049;SDS011;53955;52.442;13.284;2023-03-14T03:40:25;2.03;;;1.00;;
67049;SDS011;53955;52.442;13.284;2023-03-14T03:42:51;1.43;;;0.97;;
67049;SDS011;53955;52.442;13.284;2023-03-14T03:45:18;1.27;;;0.87;;
67049;SDS011;53955;52.442;13.284;2023-03-14T03:47:45;2.23;;;1.03;;
67049;SDS011;53955;52.442;13.284;2023-03-14T03:50:11;1.63;;;1.10;;
67049;SDS011;53955;52.442;13.284;2023-03-14T03:55:06;1.77;;;1.03;;
67049;SDS011;53955;52.442;13.284;2023-03-14T03:57:33;1.40;;;1.10;;
67049;SDS011;53955;52.442;13.284;2023-03-14T03:59:59;2.33;;;1.50;;
67049;SDS011;53955;52.442;13.284;2023-03-14T04:02:26;2.17;;;1.20;;
67049;SDS011;53955;52.442;13.284;2023-03-14T04:04:53;1.50;;;1.10;;
67049;SDS011;53955;52.442;13.284;2023-03-14T04:07:19;2.93;;;0.93;;
67049;SDS011;53955;52.442;13.284;2023-03-14T04:09:46;1.80;;;1.20;;
67049;SDS011;53955;52.442;13.284;2023-03-14T04:12:13;1.47;;;1.20;;
67049;SDS011;53955;52.442;13.284;2023-03-14T04:14:40;2.40;;;1.10;;
67049;SDS011;53955;52.442;13.284;2023-03-14T04:17:07;1.73;;;0.97;;
67049;SDS011;53955;52.442;13.284;2023-03-14T04:19:34;1.60;;;1.10;;
67049;SDS011;53955;52.442;13.284;2023-03-14T04:22:00;1.10;;;0.93;;
67049;SDS011;53955;52.442;13.284;2023-03-14T04:24:28;1.53;;;1.20;;
67049;SDS011;53955;52.442;13.284;2023-03-14T04:26:54;2.10;;;1.20;;
67049;SDS011;53955;52.442;13.284;2023-03-14T04:29:22;1.20;;;1.00;;
67049;SDS011;53955;52.442;13.284;2023-03-14T04:31:49;1.97;;;1.20;;
67049;SDS011;53955;52.442;13.284;2023-03-14T04:34:15;2.73;;;1.20;;
67049;SDS011;53955;52.442;13.284;2023-03-14T04:36:42;1.23;;;0.90;;
67049;SDS011;53955;52.442;13.284;2023-03-14T04:39:08;3.47;;;0.80;;
67049;SDS011;53955;52.442;13.284;2023-03-14T04:41:35;1.53;;;1.10;;
67049;SDS011;53955;52.442;13.284;2023-03-14T04:44:02;1.43;;;0.90;;
67049;SDS011;53955;52.442;13.284;2023-03-14T04:46:29;1.73;;;1.10;;
67049;SDS011;53955;52.442;13.284;2023-03-14T04:48:56;1.83;;;1.30;;
67049;SDS011;53955;52.442;13.284;2023-03-14T04:51:23;2.80;;;1.40;;
67049;SDS011;53955;52.442;13.284;2023-03-14T04:53:52;1.77;;;1.00;;
67049;SDS011;53955;52.442;13.284;2023-03-14T04:56:19;2.73;;;1.20;;
67049;SDS011;53955;52.442;13.284;2023-03-14T04:58:45;2.70;;;1.20;;
67049;SDS011;53955;52.442;13.284;2023-03-14T05:01:12;1.90;;;1.10;;
67049;SDS011;53955;52.442;13.284;2023-03-14T05:03:40;2.17;;;1.20;;
67049;SDS011;53955;52.442;13.284;2023-03-14T05:06:06;1.20;;;0.90;;
67049;SDS011;53955;52.442;13.284;2023-03-14T05:08:33;1.23;;;0.83;;
67049;SDS011;53955;52.442;13.284;2023-03-14T05:11:00;2.17;;;1.30;;
67049;SDS011;53955;52.442;13.284;2023-03-14T05:13:27;1.47;;;1.10;;
67049;SDS011;53955;52.442;13.284;2023-03-14T05:16:01;1.70;;;1.00;;
67049;SDS011;53955;52.442;13.284;2023-03-14T05:18:29;2.53;;;1.50;;
67049;SDS011;53955;52.442;13.284;2023-03-14T05:20:57;1.30;;;1.00;;
67049;SDS011;53955;52.442;13.284;2023-03-14T05:23:23;4.83;;;1.30;;
67049;SDS011;53955;52.442;13.284;2023-03-14T05:25:50;2.93;;;1.07;;
67049;SDS011;53955;52.442;13.284;2023-03-14T05:28:17;2.30;;;1.20;;
67049;SDS011;53955;52.442;13.284;2023-03-14T05:30:43;2.10;;;0.80;;
67049;SDS011;53955;52.442;13.284;2023-03-14T05:33:10;1.80;;;1.10;;
67049;SDS011;53955;52.442;13.284;2023-03-14T05:35:36;2.20;;;1.40;;
67049;SDS011;53955;52.442;13.284;2023-03-14T05:38:04;2.13;;;1.13;;
67049;SDS011;53955;52.442;13.284;2023-03-14T05:40:31;2.30;;;1.07;;
67049;SDS011;53955;52.442;13.284;2023-03-14T05:42:58;1.50;;;1.20;;
67049;SDS011;53955;52.442;13.284;2023-03-14T05:45:24;2.17;;;1.40;;
67049;SDS011;53955;52.442;13.284;2023-03-14T05:47:51;2.60;;;1.40;;
67049;SDS011;53955;52.442;13.284;2023-03-14T05:50:17;2.10;;;1.13;;
67049;SDS011;53955;52.442;13.284;2023-03-14T05:52:44;1.73;;;1.20;;
67049;SDS011;53955;52.442;13.284;2023-03-14T05:55:12;2.60;;;0.90;;
67049;SDS011;53955;52.442;13.284;2023-03-14T05:57:38;1.63;;;1.00;;
67049;SDS011;53955;52.442;13.284;2023-03-14T06:00:06;1.23;;;1.07;;
67049;SDS011;53955;52.442;13.284;2023-03-14T06:02:33;2.17;;;1.33;;
67049;SDS011;53955;52.442;13.284;2023-03-14T06:05:00;2.40;;;1.10;;
67049;SDS011;53955;52.442;13.284;2023-03-14T06:07:26;2.47;;;1.20;;
67049;SDS011;53955;52.442;13.284;2023-03-14T06:09:53;2.03;;;1.03;;
67049;SDS011;53955;52.442;13.284;2023-03-14T06:12:21;2.03;;;1.10;;
67049;SDS011;53955;52.442;13.284;2023-03-14T06:14:47;1.90;;;1.27;;
67049;SDS011;53955;52.442;13.284;2023-03-14T06:17:14;1.40;;;1.03;;
67049;SDS011;53955;52.442;13.284;2023-03-14T06:19:40;2.43;;;0.80;;
67049;SDS011;53955;52.442;13.284;2023-03-14T06:22:07;3.87;;;1.37;;
67049;SDS011;53955;52.442;13.284;2023-03-14T06:24:34;2.80;;;1.33;;
67049;SDS011;53955;52.442;13.284;2023-03-14T06:27:00;4.00;;;1.20;;
67049;SDS011;53955;52.442;13.284;2023-03-14T06:29:29;1.60;;;1.17;;
67049;SDS011;53955;52.442;13.284;2023-03-14T06:31:56;3.27;;;0.90;;
67049;SDS011;53955;52.442;13.284;2023-03-14T06:34:22;2.57;;;1.53;;
67049;SDS011;53955;52.442;13.284;2023-03-14T06:36:49;3.43;;;1.50;;
67049;SDS011;53955;52.442;13.284;2023-03-14T06:39:16;1.47;;;1.10;;
67049;SDS011;53955;52.442;13.284;2023-03-14T06:41:42;5.47;;;1.37;;
67049;SDS011;53955;52.442;13.284;2023-03-14T06:44:09;2.10;;;1.10;;
67049;SDS011;53955;52.442;13.284;2023-03-14T06:46:37;3.53;;;1.33;;
67049;SDS011;53955;52.442;13.284;2023-03-14T06:49:03;1.80;;;1.07;;
67049;SDS011;53955;52.442;13.284;2023-03-14T06:51:30;5.40;;;1.30;;
67049;SDS011;53955;52.442;13.284;2023-03-14T06:53:57;3.57;;;1.33;;
67049;SDS011;53955;52.442;13.284;2023-03-14T06:56:23;6.90;;;1.40;;
67049;SDS011;53955;52.442;13.284;2023-03-14T06:58:50;3.10;;;1.30;;
67049;SDS011;53955;52.442;13.284;2023-03-14T07:01:17;2.87;;;1.17;;
67049;SDS011;53955;52.442;13.284;2023-03-14T07:03:49;2.40;;;1.00;;
67049;SDS011;53955;52.442;13.284;2023-03-14T07:06:16;2.00;;;1.10;;
67049;SDS011;53955;52.442;13.284;2023-03-14T07:08:43;3.63;;;1.40;;
67049;SDS011;53955;52.442;13.284;2023-03-14T07:11:09;3.95;;;1.40;;
67049;SDS011;53955;52.442;13.284;2023-03-14T07:13:37;1.60;;;1.10;;
67049;SDS011;53955;52.442;13.284;2023-03-14T07:16:04;4.40;;;1.30;;
67049;SDS011;53955;52.442;13.284;2023-03-14T07:18:31;3.13;;;1.00;;
67049;SDS011;53955;52.442;13.284;2023-03-14T07:20:59;2.47;;;1.10;;
67049;SDS011;53955;52.442;13.284;2023-03-14T07:23:26;1.60;;;0.90;;
67049;SDS011;53955;52.442;13.284;2023-03-14T07:25:53;4.13;;;0.87;;
67049;SDS011;53955;52.442;13.284;2023-03-14T07:28:19;1.52;;;1.08;;
67049;SDS011;53955;52.442;13.284;2023-03-14T07:30:47;1.77;;;0.70;;
67049;SDS011;53955;52.442;13.284;2023-03-14T07:33:14;1.45;;;0.77;;
67049;SDS011;53955;52.442;13.284;2023-03-14T07:35:41;4.28;;;1.20;;
67049;SDS011;53955;52.442;13.284;2023-03-14T07:38:09;3.20;;;1.00;;
67049;SDS011;53955;52.442;13.284;2023-03-14T07:40:35;3.38;;;1.17;;
67049;SDS011;53955;52.442;13.284;2023-03-14T07:43:02;3.00;;;1.10;;
67049;SDS011;53955;52.442;13.284;2023-03-14T07:45:28;3.20;;;1.40;;
67049;SDS011;53955;52.442;13.284;2023-03-14T07:47:55;2.67;;;1.17;;
67049;SDS011;53955;52.442;13.284;2023-03-14T07:50:22;3.67;;;1.58;;
67049;SDS011;53955;52.442;13.284;2023-03-14T07:52:49;4.03;;;1.27;;
67049;SDS011;53955;52.442;13.284;2023-03-14T07:55:17;3.47;;;1.55;;
67049;SDS011;53955;52.442;13.284;2023-03-14T07:57:43;2.92;;;1.10;;
67049;SDS011;53955;52.442;13.284;2023-03-14T08:00:11;4.27;;;1.37;;
67049;SDS011;53955;52.442;13.284;2023-03-14T08:02:39;2.93;;;1.10;;
67049;SDS011;53955;52.442;13.284;2023-03-14T08:05:05;3.08;;;1.13;;
67049;SDS011;53955;52.442;13.284;2023-03-14T08:07:32;2.45;;;1.15;;
67049;SDS011;53955;52.442;13.284;2023-03-14T08:09:59;2.53;;;1.00;;
67049;SDS011;53955;52.442;13.284;2023-03-14T08:12:27;4.70;;;1.23;;
67049;SDS011;53955;52.442;13.284;2023-03-14T08:14:53;3.88;;;1.40;;
67049;SDS011;53955;52.442;13.284;2023-03-14T08:17:20;2.72;;;1.10;;
67049;SDS011;53955;52.442;13.284;2023-03-14T08:19:47;3.10;;;1.30;;
67049;SDS011;53955;52.442;13.284;2023-03-14T08:22:13;6.27;;;1.43;;
67049;SDS011;53955;52.442;13.284;2023-03-14T08:24:40;3.72;;;1.23;;
67049;SDS011;53955;52.442;13.284;2023-03-14T08:27:06;4.37;;;1.20;;
67049;SDS011;53955;52.442;13.284;2023-03-14T08:29:34;4.17;;;1.30;;
67049;SDS011;53955;52.442;13.284;2023-03-14T08:32:01;2.00;;;1.20;;
67049;SDS011;53955;52.442;13.284;2023-03-14T08:34:28;5.63;;;1.30;;
67049;SDS011;53955;52.442;13.284;2023-03-14T08:36:54;4.53;;;1.30;;
67049;SDS011;53955;52.442;13.284;2023-03-14T08:39:21;3.70;;;1.20;;
67049;SDS011;53955;52.442;13.284;2023-03-14T08:41:49;2.83;;;1.20;;
67049;SDS011;53955;52.442;13.284;2023-03-14T08:44:15;3.30;;;1.17;;
67049;SDS011;53955;52.442;13.284;2023-03-14T08:46:43;3.37;;;1.10;;
67049;SDS011;53955;52.442;13.284;2023-03-14T08:49:10;2.50;;;1.20;;
67049;SDS011;53955;52.442;13.284;2023-03-14T08:51:36;5.63;;;1.43;;
67049;SDS011;53955;52.442;13.284;2023-03-14T08:54:03;3.33;;;1.20;;
67049;SDS011;53955;52.442;13.284;2023-03-14T08:56:29;4.37;;;1.53;;
67049;SDS011;53955;52.442;13.284;2023-03-14T08:58:56;3.63;;;1.27;;
67049;SDS011;53955;52.442;13.284;2023-03-14T09:01:23;6.28;;;1.40;;
67049;SDS011;53955;52.442;13.284;2023-03-14T09:03:52;3.33;;;1.63;;
67049;SDS011;53955;52.442;13.284;2023-03-14T09:06:18;3.97;;;1.57;;
67049;SDS011;53955;52.442;13.284;2023-03-14T09:08:45;5.17;;;1.40;;
67049;SDS011;53955;52.442;13.284;2023-03-14T09:11:12;4.83;;;1.40;;
67049;SDS011;53955;52.442;13.284;2023-03-14T09:13:39;5.38;;;0.98;;
67049;SDS011;53955;52.442;13.284;2023-03-14T09:16:07;4.40;;;1.17;;
67049;SDS011;53955;52.442;13.284;2023-03-14T09:18:34;3.53;;;1.30;;
67049;SDS011;53955;52.442;13.284;2023-03-14T09:21:02;5.95;;;1.50;;
67049;SDS011;53955;52.442;13.284;2023-03-14T09:23:30;4.18;;;1.20;;
67049;SDS011;53955;52.442;13.284;2023-03-14T09:25:57;5.60;;;1.27;;
67049;SDS011;53955;52.442;13.284;2023-03-14T09:28:24;2.08;;;0.93;;
67049;SDS011;53955;52.442;13.284;2023-03-14T09:30:51;5.40;;;0.88;;
67049;SDS011;53955;52.442;13.284;2023-03-14T09:33:19;4.40;;;1.00;;
67049;SDS011;53955;52.442;13.284;2023-03-14T09:35:46;3.03;;;1.10;;
67049;SDS011;53955;52.442;13.284;2023-03-14T09:38:14;3.17;;;1.08;;
67049;SDS011;53955;52.442;13.284;2023-03-14T09:40:41;5.50;;;1.73;;
67049;SDS011;53955;52.442;13.284;2023-03-14T09:43:09;4.63;;;1.05;;
67049;SDS011;53955;52.442;13.284;2023-03-14T09:45:38;4.80;;;1.00;;
67049;SDS011;53955;52.442;13.284;2023-03-14T09:48:08;4.93;;;1.17;;
67049;SDS011;53955;52.442;13.284;2023-03-14T09:50:41;3.08;;;0.98;;
67049;SDS011;53955;52.442;13.284;2023-03-14T09:53:11;5.17;;;1.03;;
67049;SDS011;53955;52.442;13.284;2023-03-14T09:55:43;2.15;;;1.00;;
67049;SDS011;53955;52.442;13.284;2023-03-14T09:58:12;3.20;;;1.10;;
67049;SDS011;53955;52.442;13.284;2023-03-14T10:00:41;3.60;;;0.80;;
67049;SDS011;53955;52.442;13.284;2023-03-14T10:03:20;3.30;;;1.07;;
67049;SDS011;53955;52.442;13.284;2023-03-14T10:05:50;4.77;;;1.10;;
67049;SDS011;53955;52.442;13.284;2023-03-14T10:08:18;3.63;;;1.20;;
67049;SDS011;53955;52.442;13.284;2023-03-14T10:10:44;3.38;;;1.00;;
67049;SDS011;53955;52.442;13.284;2023-03-14T10:13:14;4.40;;;1.10;;
67049;SDS011;53955;52.442;13.284;2023-03-14T10:15:43;4.03;;;1.40;;
67049;SDS011;53955;52.442;13.284;2023-03-14T10:18:14;2.65;;;1.20;;
67049;SDS011;53955;52.442;13.284;2023-03-14T10:20:41;2.97;;;1.13;;
67049;SDS011;53955;52.442;13.284;2023-03-14T10:23:20;5.33;;;1.00;;
67049;SDS011;53955;52.442;13.284;2023-03-14T10:25:58;6.17;;;1.03;;
67049;SDS011;53955;52.442;13.284;2023-03-14T10:28:29;3.97;;;0.90;;
67049;SDS011;53955;52.442;13.284;2023-03-14T10:30:58;2.50;;;0.90;;
67049;SDS011;53955;52.442;13.284;2023-03-14T10:35:54;3.90;;;1.02;;
67049;SDS011;53955;52.442;13.284;2023-03-14T10:38:24;2.25;;;0.80;;
67049;SDS011;53955;52.442;13.284;2023-03-14T10:40:52;4.03;;;0.80;;
67049;SDS011;53955;52.442;13.284;2023-03-14T10:43:22;2.13;;;1.00;;
67049;SDS011;53955;52.442;13.284;2023-03-14T10:45:52;1.33;;;0.63;;
67049;SDS011;53955;52.442;13.284;2023-03-14T10:48:23;2.42;;;1.08;;
67049;SDS011;53955;52.442;13.284;2023-03-14T10:50:55;1.73;;;0.85;;
67049;SDS011;53955;52.442;13.284;2023-03-14T10:53:25;2.13;;;1.08;;
67049;SDS011;53955;52.442;13.284;2023-03-14T10:55:52;2.47;;;0.95;;
67049;SDS011;53955;52.442;13.284;2023-03-14T10:58:22;2.20;;;0.80;;
67049;SDS011;53955;52.442;13.284;2023-03-14T11:00:59;5.55;;;1.45;;
67049;SDS011;53955;52.442;13.284;2023-03-14T11:03:32;5.45;;;1.13;;
67049;SDS011;53955;52.442;13.284;2023-03-14T11:06:04;2.60;;;1.30;;
67049;SDS011;53955;52.442;13.284;2023-03-14T11:08:40;3.90;;;1.30;;
67049;SDS011;53955;52.442;13.284;2023-03-14T11:11:13;2.60;;;0.88;;
67049;SDS011;53955;52.442;13.284;2023-03-14T11:13:46;3.08;;;1.02;;
67049;SDS011;53955;52.442;13.284;2023-03-14T11:16:21;2.90;;;1.10;;
67049;SDS011;53955;52.442;13.284;2023-03-14T11:19:00;1.27;;;0.80;;
67049;SDS011;53955;52.442;13.284;2023-03-14T11:21:45;2.00;;;0.75;;
67049;SDS011;53955;52.442;13.284;2023-03-14T11:24:25;1.33;;;0.90;;
67049;SDS011;53955;52.442;13.284;2023-03-14T11:26:59;1.90;;;1.08;;
67049;SDS011;53955;52.442;13.284;2023-03-14T11:29:34;2.15;;;0.80;;
67049;SDS011;53955;52.442;13.284;2023-03-14T11:32:10;2.03;;;0.93;;
67049;SDS011;53955;52.442;13.284;2023-03-14T11:34:40;3.15;;;1.00;;
67049;SDS011;53955;52.442;13.284;2023-03-14T11:37:14;2.97;;;1.17;;
67049;SDS011;53955;52.442;13.284;2023-03-14T11:49:40;4.90;;;0.80;;
67049;SDS011;53955;52.442;13.284;2023-03-14T11:52:10;3.85;;;0.82;;
67049;SDS011;53955;52.442;13.284;2023-03-14T11:54:43;1.33;;;0.87;;
67049;SDS011;53955;52.442;13.284;2023-03-14T11:57:15;3.30;;;1.00;;
67049;SDS011;53955;52.442;13.284;2023-03-14T11:59:45;3.17;;;0.80;;
67049;SDS011;53955;52.442;13.284;2023-03-14T12:02:19;3.42;;;1.00;;
67049;SDS011;53955;52.442;13.284;2023-03-14T12:04:52;3.17;;;1.00;;
67049;SDS011;53955;52.442;13.284;2023-03-14T12:07:44;1.45;;;0.90;;
67049;SDS011;53955;52.442;13.284;2023-03-14T12:10:31;1.77;;;0.80;;
67049;SDS011;53955;52.442;13.284;2023-03-14T12:13:03;1.05;;;0.73;;
67049;SDS011;53955;52.442;13.284;2023-03-14T12:15:30;2.60;;;0.75;;
67049;SDS011;53955;52.442;13.284;2023-03-14T12:17:56;1.15;;;0.73;;
67049;SDS011;53955;52.442;13.284;2023-03-14T12:20:23;1.65;;;0.70;;
67049;SDS011;53955;52.442;13.284;2023-03-14T12:22:51;2.50;;;1.00;;
67049;SDS011;53955;52.442;13.284;2023-03-14T12:25:20;1.50;;;0.83;;
67049;SDS011;53955;52.442;13.284;2023-03-14T12:30:47;2.10;;;0.95;;
67049;SDS011;53955;52.442;13.284;2023-03-14T12:33:20;4.55;;;0.88;;
67049;SDS011;53955;52.442;13.284;2023-03-14T12:35:52;1.00;;;0.70;;
67049;SDS011;53955;52.442;13.284;2023-03-14T12:38:27;1.63;;;0.80;;
67049;SDS011;53955;52.442;13.284;2023-03-14T12:41:05;1.20;;;0.75;;
67049;SDS011;53955;52.442;13.284;2023-03-14T12:43:39;1.80;;;0.80;;
67049;SDS011;53955;52.442;13.284;2023-03-14T12:46:06;2.35;;;0.70;;
67049;SDS011;53955;52.442;13.284;2023-03-14T12:48:35;1.55;;;0.80;;
67049;SDS011;53955;52.442;13.284;2023-03-14T12:51:11;1.15;;;0.70;;
67049;SDS011;53955;52.442;13.284;2023-03-14T12:53:50;0.95;;;0.60;;
67049;SDS011;53955;52.442;13.284;2023-03-14T12:56:38;1.50;;;0.87;;
67049;SDS011;53955;52.442;13.284;2023-03-14T12:59:26;3.40;;;1.03;;
67049;SDS011;53955;52.442;13.284;2023-03-14T13:01:58;1.73;;;0.70;;
67049;SDS011;53955;52.442;13.284;2023-03-14T13:04:27;0.83;;;0.57;;
67049;SDS011;53955;52.442;13.284;2023-03-14T13:06:57;1.03;;;0.70;;
67049;SDS011;53955;52.442;13.284;2023-03-14T13:12:23;2.10;;;0.90;;
67049;SDS011;53955;52.442;13.284;2023-03-14T13:14:57;2.47;;;0.90;;
67049;SDS011;53955;52.442;13.284;2023-03-14T13:17:28;1.60;;;0.65;;
67049;SDS011;53955;52.442;13.284;2023-03-14T13:19:57;0.98;;;0.73;;
67049;SDS011;53955;52.442;13.284;2023-03-14T13:22:28;3.70;;;0.80;;
67049;SDS011;53955;52.442;13.284;2023-03-14T13:24:59;1.55;;;0.70;;
67049;SDS011;53955;52.442;13.284;2023-03-14T13:27:29;1.10;;;0.80;;
67049;SDS011;53955;52.442;13.284;2023-03-14T13:29:59;1.35;;;0.75;;
67049;SDS011;53955;52.442;13.284;2023-03-14T13:32:31;1.15;;;0.65;;
67049;SDS011;53955;52.442;13.284;2023-03-14T13:34:58;1.52;;;0.80;;
67049;SDS011;53955;52.442;13.284;2023-03-14T13:37:25;1.20;;;0.70;;
67049;SDS011;53955;52.442;13.284;2023-03-14T13:39:53;1.20;;;0.82;;
67049;SDS011;53955;52.442;13.284;2023-03-14T13:42:21;0.80;;;0.60;;
67049;SDS011;53955;52.442;13.284;2023-03-14T13:44:51;1.20;;;0.77;;
67049;SDS011;53955;52.442;13.284;2023-03-14T13:47:21;0.80;;;0.60;;
67049;SDS011;53955;52.442;13.284;2023-03-14T13:49:50;0.98;;;0.60;;
67049;SDS011;53955;52.442;13.284;2023-03-14T13:52:21;0.93;;;0.57;;
67049;SDS011;53955;52.442;13.284;2023-03-14T13:54:52;1.00;;;0.70;;
67049;SDS011;53955;52.442;13.284;2023-03-14T13:57:19;0.73;;;0.47;;
67049;SDS011;53955;52.442;13.284;2023-03-14T13:59:53;1.00;;;0.60;;
67049;SDS011;53955;52.442;13.284;2023-03-14T14:02:26;0.73;;;0.50;;
67049;SDS011;53955;52.442;13.284;2023-03-14T14:04:53;4.22;;;0.80;;
67049;SDS011;53955;52.442;13.284;2023-03-14T14:07:20;1.73;;;0.68;;
67049;SDS011;53955;52.442;13.284;2023-03-14T14:09:47;0.93;;;0.57;;
67049;SDS011;53955;52.442;13.284;2023-03-14T14:12:16;0.70;;;0.70;;
67049;SDS011;53955;52.442;13.284;2023-03-14T14:14:50;1.55;;;0.63;;
67049;SDS011;53955;52.442;13.284;2023-03-14T14:17:20;1.92;;;0.80;;
67049;SDS011;53955;52.442;13.284;2023-03-14T14:19:51;1.13;;;0.70;;
67049;SDS011;53955;52.442;13.284;2023-03-14T14:22:21;2.42;;;0.88;;
67049;SDS011;53955;52.442;13.284;2023-03-14T14:24:48;2.58;;;0.80;;
67049;SDS011;53955;52.442;13.284;2023-03-14T14:27:17;0.85;;;0.65;;
67049;SDS011;53955;52.442;13.284;2023-03-14T14:29:56;1.25;;;0.63;;
67049;SDS011;53955;52.442;13.284;2023-03-14T14:32:24;3.00;;;0.90;;
67049;SDS011;53955;52.442;13.284;2023-03-14T14:34:57;1.93;;;0.80;;
67049;SDS011;53955;52.442;13.284;2023-03-14T14:37:26;0.70;;;0.60;;
67049;SDS011;53955;52.442;13.284;2023-03-14T14:39:54;1.75;;;0.80;;
67049;SDS011;53955;52.442;13.284;2023-03-14T14:42:24;1.70;;;0.80;;
67049;SDS011;53955;52.442;13.284;2023-03-14T14:44:53;3.47;;;0.85;;
67049;SDS011;53955;52.442;13.284;2023-03-14T14:47:20;4.03;;;0.80;;
67049;SDS011;53955;52.442;13.284;2023-03-14T14:49:49;1.38;;;0.90;;
67049;SDS011;53955;52.442;13.284;2023-03-14T14:52:18;0.70;;;0.70;;
67049;SDS011;53955;52.442;13.284;2023-03-14T14:54:47;1.13;;;0.70;;
67049;SDS011;53955;52.442;13.284;2023-03-14T14:57:20;1.52;;;0.88;;
67049;SDS011;53955;52.442;13.284;2023-03-14T14:59:48;0.90;;;0.70;;
67049;SDS011;53955;52.442;13.284;2023-03-14T15:02:29;2.10;;;0.77;;